Terminal Aerodrome Forecast
Issued by NWS Twin Cities, MN

Home | Current Version | Previous Version | Graphics & Text | Print | Product List | Glossary On
Versions: 1 2 3 4 5 6 7 8 9 10 11 12 13 14 15 16 17 18 19 20
000
FTUS43 KMPX 291500 AAB
TAFSTC
TAF AMD
KSTC 291518Z 2915/3012 20006KT 4SM -SHRA BR VCTS SCT015CB BKN035
      TEMPO 2915/2917 +SHRA BKN015
     FM291700 22005KT P6SM -SHRA SCT009 OVC018
     FM291900 22004KT P6SM VCTS SCT025CB BKN080
     FM292200 00000KT P6SM SCT020 BKN050
     FM300300 36003KT 4SM BR SCT007 OVC012=

USA.gov is the U.S. government's official web portal to all federal, state and local government web resources and services.